الصفحة الرئيسية
METAR-TAF:

METAR-TAF

مطار :

Panama Pacifico, بنما

دائرة عرض: 08-55N, خط طول: 079-36W, ارتفاع: 16 متر

مراقبة الطقس الحالي

تاريخ ووقت الإصدار 17 دقيقة قبل الساعة 19:00UTC
ريح 12 عقدة من الشمال/الشمال الشرقي
درجة الحرارة 34°درجة مئوية
الرطوبة 50%
ضغط 1012 hPa
الرؤية: 9000 متر
غيوم قليلة على ارتفاع 1800 قدم

METAR: MPPA 211900Z 02012KT 9000 FEW018 34/22 Q1012

زمن: 14:17 (19:17 UTC)

توقعات

تاريخ ووقت الإصدار 1ساعة و 50 دقيقة قبل الساعة 17:27UTC
التوقعات صالحة من21 الساعة 18 UTC إلى 22 الساعة 24 UTC
ريح 18 عقدة من الشمال
الرؤية 10 كم أو أكثر
غيوم متفرقة على ارتفاع 2000 قدم
مؤقت
من 22 الساعة 03 UTC إلى 22 الساعة 07 UTC
ريح 6 عقدة من الشمال
مؤقت
من 22 الساعة 12 UTC إلى 22 الساعة 16 UTC
ريح 9 عقدة من الشمال

TAF: MPPA 211727Z 2118/2224 01018KT 9999 SCT020 TEMPO 2203/2207 35006KT TEMPO 2212/2216 01009KT

أرصاد الطقس والتوقعات من أكثر من 4000 مطار (تقارير الطقس للمطار METAR والتنبؤ بالطقس بالمطارTAF).

المحطات المتاحة هي النقط الصفراء والحمراء على الخريطة.

حرك المؤشر فوق النقطة لمعرفة اسم المحطة.

ثم انقر لمعرفة أرصاد وتوقعات الطقس.

لتغيير الخارطة: اضغط على الأزرار الخضراء مع رمز الصليب الأسود للتكبير. على الزر الأخضر مع شرطة للتصغير، أو على الأسهم الخضراء للخرائط المجاورة.


METAR-TAF: